Time,TemperatureF,DewpointF,PressureIn,WindDirection,WindDirectionDegrees,WindSpeedMPH,WindSpeedGustMPH,Humidity,HourlyPrecipIn,Conditions,Clouds,dailyrainin,SoftwareType,DateUTC
2013-09-19 00:00:00,65.6,37.9,29.85,North,355,0.0,0.0,36,0.00,,,0.00,Wunderground v.1.15,2013-09-19 07:00:00,
2013-09-19 00:10:00,66.0,39.0,29.85,North,5,0.0,0.0,37,0.00,,,0.00,Wunderground v.1.15,2013-09-19 07:10:00,
2013-09-19 00:15:00,66.3,39.9,29.85,North,355,0.0,0.0,38,0.00,,,0.00,Wunderground v.1.15,2013-09-19 07:15:00,
2013-09-19 00:20:00,66.6,39.5,29.85,North,355,0.0,0.0,37,0.00,,,0.00,Wunderground v.1.15,2013-09-19 07:20:00,
2013-09-19 00:25:00,66.8,39.7,29.85,NNW,344,0.0,0.0,37,0.00,,,0.00,Wunderground v.1.15,2013-09-19 07:25:00,
2013-09-19 00:34:00,66.6,38.8,29.85,North,351,0.0,4.0,36,0.00,,,0.00,Wunderground v.1.15,2013-09-19 07:34:00,
2013-09-19 00:39:00,66.5,39.4,29.85,NNW,346,2.0,3.0,37,0.00,,,0.00,Wunderground v.1.15,2013-09-19 07:39:00,
2013-09-19 00:44:00,66.5,39.4,29.85,North,355,3.0,3.0,37,0.00,,,0.00,Wunderground v.1.15,2013-09-19 07:44:00,
2013-09-19 00:50:00,66.7,38.9,29.85,North,355,3.0,3.0,36,0.00,,,0.00,Wunderground v.1.15,2013-09-19 07:50:00,
2013-09-19 00:55:00,66.7,39.6,29.85,North,355,2.0,3.0,37,0.00,,,0.00,Wunderground v.1.15,2013-09-19 07:55:00,
2013-09-19 01:00:00,66.7,39.6,29.85,North,10,2.0,2.0,37,0.00,,,0.00,Wunderground v.1.15,2013-09-19 08:00:00,
2013-09-19 01:09:00,66.6,39.5,29.85,North,10,1.0,1.0,37,0.00,,,0.00,Wunderground v.1.15,2013-09-19 08:09:00,
2013-09-19 01:15:00,66.4,39.3,29.85,North,10,0.0,1.0,37,0.00,,,0.00,Wunderground v.1.15,2013-09-19 08:15:00,
2013-09-19 01:24:00,66.3,39.9,29.84,North,10,0.0,0.0,38,0.00,,,0.00,Wunderground v.1.15,2013-09-19 08:24:00,
2013-09-19 01:29:00,66.2,39.8,29.84,North,10,0.0,0.0,38,0.00,,,0.00,Wunderground v.1.15,2013-09-19 08:29:00,
2013-09-19 01:35:00,66.0,39.7,29.84,North,10,0.0,4.0,38,0.00,,,0.00,Wunderground v.1.15,2013-09-19 08:35:00,
2013-09-19 01:40:00,65.9,39.6,29.84,North,10,0.0,4.0,38,0.00,,,0.00,Wunderground v.1.15,2013-09-19 08:40:00,
2013-09-19 01:45:00,66.1,39.7,29.84,North,10,0.0,4.0,38,0.00,,,0.00,Wunderground v.1.15,2013-09-19 08:45:00,
2013-09-19 01:55:00,66.2,40.5,29.85,North,10,0.0,4.0,39,0.00,,,0.00,Wunderground v.1.15,2013-09-19 08:55:00,
2013-09-19 02:00:00,66.2,41.2,29.84,North,360,0.0,2.0,40,0.00,,,0.00,Wunderground v.1.15,2013-09-19 09:00:00,
2013-09-19 02:09:00,66.0,42.9,29.84,NNW,348,3.0,3.0,43,0.00,,,0.00,Wunderground v.1.15,2013-09-19 09:09:00,
2013-09-19 02:14:00,65.5,43.0,29.84,North,5,3.0,3.0,44,0.00,,,0.00,Wunderground v.1.15,2013-09-19 09:14:00,
2013-09-19 02:19:00,65.3,43.4,29.84,NNW,338,3.0,3.0,45,0.00,,,0.00,Wunderground v.1.15,2013-09-19 09:19:00,
2013-09-19 02:29:00,65.0,43.7,29.84,North,355,3.0,4.0,46,0.00,,,0.00,Wunderground v.1.15,2013-09-19 09:29:00,
2013-09-19 02:34:00,65.0,43.7,29.84,North,350,3.0,4.0,46,0.00,,,0.00,Wunderground v.1.15,2013-09-19 09:34:00,
2013-09-19 02:40:00,65.2,43.9,29.84,NNW,344,4.0,4.0,46,0.00,,,0.00,Wunderground v.1.15,2013-09-19 09:40:00,
2013-09-19 02:45:00,65.3,43.4,29.83,North,5,4.0,4.0,45,0.00,,,0.00,Wunderground v.1.15,2013-09-19 09:45:00,
2013-09-19 02:50:00,65.6,43.7,29.83,North,355,4.0,4.0,45,0.00,,,0.00,Wunderground v.1.15,2013-09-19 09:50:00,
2013-09-19 03:00:00,66.2,43.0,29.83,North,350,4.0,4.0,43,0.00,,,0.00,Wunderground v.1.15,2013-09-19 10:00:00,
2013-09-19 03:09:00,66.6,42.8,29.83,North,360,5.0,5.0,42,0.00,,,0.00,Wunderground v.1.15,2013-09-19 10:09:00,
2013-09-19 03:14:00,66.9,42.4,29.83,North,355,5.0,5.0,41,0.00,,,0.00,Wunderground v.1.15,2013-09-19 10:14:00,
2013-09-19 03:20:00,67.1,42.0,29.82,North,5,5.0,5.0,40,0.00,,,0.00,Wunderground v.1.15,2013-09-19 10:20:00,
2013-09-19 03:25:00,67.3,42.1,29.82,North,355,5.0,6.0,40,0.00,,,0.00,Wunderground v.1.15,2013-09-19 10:25:00,
2013-09-19 03:35:00,67.5,42.3,29.82,North,5,5.0,5.0,40,0.00,,,0.00,Wunderground v.1.15,2013-09-19 10:35:00,
2013-09-19 03:40:00,67.4,42.2,29.82,North,360,5.0,5.0,40,0.00,,,0.00,Wunderground v.1.15,2013-09-19 10:40:00,
2013-09-19 03:45:00,67.5,42.3,29.82,North,5,4.0,5.0,40,0.00,,,0.00,Wunderground v.1.15,2013-09-19 10:45:00,
2013-09-19 03:50:00,67.5,42.3,29.82,North,355,4.0,4.0,40,0.00,,,0.00,Wunderground v.1.15,2013-09-19 10:50:00,
2013-09-19 03:59:00,67.7,41.8,29.82,North,5,4.0,5.0,39,0.00,,,0.00,Wunderground v.1.15,2013-09-19 10:59:00,
2013-09-19 04:04:00,67.7,41.2,29.82,North,11,4.0,5.0,38,0.00,,,0.00,Wunderground v.1.15,2013-09-19 11:04:00,
2013-09-19 04:09:00,67.6,41.7,29.82,North,360,4.0,4.0,39,0.00,,,0.00,Wunderground v.1.15,2013-09-19 11:09:00,
2013-09-19 04:15:00,67.6,41.7,29.82,North,360,4.0,4.0,39,0.00,,,0.00,Wunderground v.1.15,2013-09-19 11:15:00,
2013-09-19 04:20:00,67.5,41.7,29.82,NNW,340,4.0,4.0,39,0.00,,,0.00,Wunderground v.1.15,2013-09-19 11:20:00,
2013-09-19 04:25:00,67.5,42.3,29.81,North,360,4.0,4.0,40,0.00,,,0.00,Wunderground v.1.15,2013-09-19 11:25:00,
2013-09-19 04:30:00,67.6,41.7,29.82,North,5,4.0,4.0,39,0.00,,,0.00,Wunderground v.1.15,2013-09-19 11:30:00,
2013-09-19 04:35:00,67.5,41.7,29.82,North,360,4.0,5.0,39,0.00,,,0.00,Wunderground v.1.15,2013-09-19 11:35:00,
2013-09-19 04:45:00,67.3,42.1,29.82,North,9,4.0,4.0,40,0.00,,,0.00,Wunderground v.1.15,2013-09-19 11:45:00,
2013-09-19 04:54:00,67.0,41.9,29.82,North,355,4.0,5.0,40,0.00,,,0.00,Wunderground v.1.15,2013-09-19 11:54:00,
2013-09-19 05:00:00,67.0,41.9,29.82,North,360,5.0,5.0,40,0.00,,,0.00,Wunderground v.1.15,2013-09-19 12:00:00,
2013-09-19 05:05:00,67.0,41.9,29.82,North,355,5.0,5.0,40,0.00,,,0.00,Wunderground v.1.15,2013-09-19 12:05:00,
2013-09-19 05:10:00,67.0,41.9,29.82,North,5,5.0,5.0,40,0.00,,,0.00,Wunderground v.1.15,2013-09-19 12:10:00,
2013-09-19 05:20:00,66.1,41.1,29.82,NNE,26,4.0,4.0,40,0.00,,,0.00,Wunderground v.1.15,2013-09-19 12:20:00,
2013-09-19 05:25:00,66.0,41.6,29.82,NNE,15,4.0,4.0,41,0.00,,,0.00,Wunderground v.1.15,2013-09-19 12:25:00,
2013-09-19 05:30:00,65.7,41.3,29.82,NNE,19,4.0,4.0,41,0.00,,,0.00,Wunderground v.1.15,2013-09-19 12:30:00,
2013-09-19 05:39:00,65.0,41.3,29.82,NE,34,4.0,4.0,42,0.00,,,0.00,Wunderground v.1.15,2013-09-19 12:39:00,
2013-09-19 05:44:00,65.2,40.9,29.82,North,9,4.0,4.0,41,0.00,,,0.00,Wunderground v.1.15,2013-09-19 12:44:00,
2013-09-19 05:49:00,65.5,41.2,29.82,NNE,15,3.0,4.0,41,0.00,,,0.00,Wunderground v.1.15,2013-09-19 12:49:00,
2013-09-19 05:55:00,65.9,41.5,29.82,NNE,16,4.0,4.0,41,0.00,,,0.00,Wunderground v.1.15,2013-09-19 12:55:00,
2013-09-19 06:00:00,66.0,41.6,29.82,NNE,15,4.0,4.0,41,0.00,,,0.00,Wunderground v.1.15,2013-09-19 13:00:00,
2013-09-19 06:05:00,66.2,41.2,29.83,North,9,4.0,4.0,40,0.00,,,0.00,Wunderground v.1.15,2013-09-19 13:05:00,
2013-09-19 06:10:00,66.0,41.6,29.83,NNE,14,4.0,4.0,41,0.00,,,0.00,Wunderground v.1.15,2013-09-19 13:10:00,
2013-09-19 06:19:00,65.3,41.0,29.83,NNE,27,3.0,3.0,41,0.00,,,0.00,Wunderground v.1.15,2013-09-19 13:19:00,
2013-09-19 06:29:00,65.4,41.1,29.83,NNE,20,3.0,3.0,41,0.00,,,0.00,Wunderground v.1.15,2013-09-19 13:29:00,
2013-09-19 06:34:00,65.6,41.3,29.83,North,11,4.0,5.0,41,0.00,,,0.00,Wunderground v.1.15,2013-09-19 13:34:00,
2013-09-19 06:40:00,65.9,40.9,29.83,NNE,14,4.0,4.0,40,0.00,,,0.00,Wunderground v.1.15,2013-09-19 13:40:00,
2013-09-19 06:45:00,65.8,40.8,29.83,NNE,23,4.0,4.0,40,0.00,,,0.00,Wunderground v.1.15,2013-09-19 13:45:00,
2013-09-19 06:50:00,65.8,40.1,29.83,North,5,4.0,5.0,39,0.00,,,0.00,Wunderground v.1.15,2013-09-19 13:50:00,
2013-09-19 07:00:00,65.8,39.5,29.83,North,355,4.0,5.0,38,0.00,,,0.00,Wunderground v.1.15,2013-09-19 14:00:00,
2013-09-19 07:09:00,65.9,37.5,29.83,NNE,13,5.0,5.0,35,0.00,,,0.00,Wunderground v.1.15,2013-09-19 14:09:00,
2013-09-19 07:14:00,65.9,36.0,29.83,NNE,25,5.0,7.0,33,0.00,,,0.00,Wunderground v.1.15,2013-09-19 14:14:00,
2013-09-19 07:19:00,65.9,34.4,29.83,North,360,6.0,6.0,31,0.00,,,0.00,Wunderground v.1.15,2013-09-19 14:19:00,
2013-09-19 07:25:00,65.8,34.3,29.83,NNE,18,6.0,6.0,31,0.00,,,0.00,Wunderground v.1.15,2013-09-19 14:25:00,
2013-09-19 07:35:00,66.0,33.7,29.84,North,360,6.0,6.0,30,0.00,,,0.00,Wunderground v.1.15,2013-09-19 14:35:00,
2013-09-19 07:40:00,66.6,34.2,29.84,NNE,26,5.0,5.0,30,0.00,,,0.00,Wunderground v.1.15,2013-09-19 14:40:00,
2013-09-19 07:45:00,67.2,34.7,29.84,NNE,23,5.0,5.0,30,0.00,,,0.00,Wunderground v.1.15,2013-09-19 14:45:00,
2013-09-19 07:54:00,67.9,35.3,29.84,NNE,13,5.0,7.0,30,0.00,,,0.00,Wunderground v.1.15,2013-09-19 14:54:00,
2013-09-19 08:00:00,68.5,34.1,29.84,North,11,5.0,5.0,28,0.00,,,0.00,Wunderground v.1.15,2013-09-19 15:00:00,
2013-09-19 08:05:00,68.9,33.5,29.83,North,351,5.0,6.0,27,0.00,,,0.00,Wunderground v.1.15,2013-09-19 15:05:00,
2013-09-19 08:10:00,69.4,33.0,29.83,North,5,5.0,6.0,26,0.00,,,0.00,Wunderground v.1.15,2013-09-19 15:10:00,
2013-09-19 08:15:00,69.8,33.3,29.83,NNE,13,5.0,6.0,26,0.00,,,0.00,Wunderground v.1.15,2013-09-19 15:15:00,
2013-09-19 08:20:00,70.1,33.6,29.83,NNE,28,5.0,7.0,26,0.00,,,0.00,Wunderground v.1.15,2013-09-19 15:20:00,
2013-09-19 08:25:00,70.4,32.9,29.83,NNE,29,6.0,7.0,25,0.00,,,0.00,Wunderground v.1.15,2013-09-19 15:25:00,
2013-09-19 08:34:00,71.9,33.1,29.84,North,5,5.0,7.0,24,0.00,,,0.00,Wunderground v.1.15,2013-09-19 15:34:00,
2013-09-19 08:44:00,72.6,33.7,29.84,NNW,333,5.0,5.0,24,0.00,,,0.00,Wunderground v.1.15,2013-09-19 15:44:00,
2013-09-19 08:49:00,72.6,33.7,29.84,NNE,16,6.0,6.0,24,0.00,,,0.00,Wunderground v.1.15,2013-09-19 15:49:00,
2013-09-19 08:54:00,72.6,33.7,29.84,North,360,6.0,7.0,24,0.00,,,0.00,Wunderground v.1.15,2013-09-19 15:54:00,
2013-09-19 09:00:00,72.6,34.7,29.84,NNE,30,6.0,10.0,25,0.00,,,0.00,Wunderground v.1.15,2013-09-19 16:00:00,
2013-09-19 09:05:00,72.6,34.7,29.84,North,350,7.0,10.0,25,0.00,,,0.00,Wunderground v.1.15,2013-09-19 16:05:00,
2013-09-19 09:10:00,72.8,34.9,29.84,NNE,32,7.0,7.0,25,0.00,,,0.00,Wunderground v.1.15,2013-09-19 16:10:00,
2013-09-19 09:20:00,73.6,35.6,29.85,NE,36,6.0,6.0,25,0.00,,,0.00,Wunderground v.1.15,2013-09-19 16:20:00,
2013-09-19 09:29:00,74.9,35.7,29.85,NW,325,5.0,5.0,24,0.00,,,0.00,Wunderground v.1.15,2013-09-19 16:29:00,
2013-09-19 09:34:00,75.5,34.0,29.85,NE,40,4.0,5.0,22,0.00,,,0.00,Wunderground v.1.15,2013-09-19 16:34:00,
2013-09-19 09:40:00,75.3,34.9,29.85,NNE,26,4.0,5.0,23,0.00,,,0.00,Wunderground v.1.15,2013-09-19 16:40:00,
2013-09-19 09:45:00,75.4,35.0,29.85,NNW,339,5.0,5.0,23,0.00,,,0.00,Wunderground v.1.15,2013-09-19 16:45:00,
2013-09-19 09:55:00,75.1,33.6,29.85,ENE,69,5.0,6.0,22,0.00,,,0.00,Wunderground v.1.15,2013-09-19 16:55:00,
2013-09-19 10:00:00,75.7,35.3,29.85,North,360,4.0,4.0,23,0.00,,,0.00,Wunderground v.1.15,2013-09-19 17:00:00,
2013-09-19 10:09:00,76.0,35.5,29.85,North,360,4.0,6.0,23,0.00,,,0.00,Wunderground v.1.15,2013-09-19 17:09:00,
2013-09-19 10:14:00,75.7,35.3,29.85,North,5,5.0,6.0,23,0.00,,,0.00,Wunderground v.1.15,2013-09-19 17:14:00,
2013-09-19 10:20:00,75.6,37.3,29.85,NNW,331,6.0,6.0,25,0.00,,,0.00,Wunderground v.1.15,2013-09-19 17:20:00,
2013-09-19 10:25:00,75.9,36.5,29.85,North,360,5.0,6.0,24,0.00,,,0.00,Wunderground v.1.15,2013-09-19 17:25:00,
2013-09-19 10:30:00,75.6,37.3,29.85,North,10,5.0,5.0,25,0.00,,,0.00,Wunderground v.1.15,2013-09-19 17:30:00,
2013-09-19 10:35:00,75.5,37.2,29.85,NNW,343,6.0,6.0,25,0.00,,,0.00,Wunderground v.1.15,2013-09-19 17:35:00,
2013-09-19 10:40:00,75.5,37.2,29.84,North,355,7.0,8.0,25,0.00,,,0.00,Wunderground v.1.15,2013-09-19 17:40:00,
2013-09-19 10:49:00,75.3,37.0,29.85,North,11,7.0,7.0,25,0.00,,,0.00,Wunderground v.1.15,2013-09-19 17:49:00,
2013-09-19 10:54:00,75.0,36.8,29.85,North,355,7.0,7.0,25,0.00,,,0.00,Wunderground v.1.15,2013-09-19 17:54:00,
2013-09-19 10:59:00,75.2,36.9,29.85,NNW,346,7.0,7.0,25,0.00,,,0.00,Wunderground v.1.15,2013-09-19 17:59:00,
2013-09-19 11:05:00,75.1,37.9,29.85,North,355,7.0,7.0,26,0.00,,,0.00,Wunderground v.1.15,2013-09-19 18:05:00,
2013-09-19 11:10:00,75.6,38.3,29.85,North,350,7.0,7.0,26,0.00,,,0.00,Wunderground v.1.15,2013-09-19 18:10:00,
2013-09-19 11:15:00,75.9,38.5,29.84,North,11,7.0,7.0,26,0.00,,,0.00,Wunderground v.1.15,2013-09-19 18:15:00,
2013-09-19 11:25:00,76.1,38.7,29.85,NNW,327,7.0,9.0,26,0.00,,,0.00,Wunderground v.1.15,2013-09-19 18:25:00,
2013-09-19 11:30:00,76.1,38.7,29.85,North,360,7.0,7.0,26,0.00,,,0.00,Wunderground v.1.15,2013-09-19 18:30:00,
2013-09-19 11:40:00,76.0,39.6,29.84,NNW,335,8.0,9.0,27,0.00,,,0.00,Wunderground v.1.15,2013-09-19 18:40:00,
2013-09-19 11:45:00,76.2,39.8,29.84,North,349,8.0,9.0,27,0.00,,,0.00,Wunderground v.1.15,2013-09-19 18:45:00,
2013-09-19 11:50:00,76.7,40.2,29.84,NNE,15,7.0,7.0,27,0.00,,,0.00,Wunderground v.1.15,2013-09-19 18:50:00,
2013-09-19 12:00:00,77.0,39.5,29.84,NNW,333,7.0,7.0,26,0.00,,,0.00,Wunderground v.1.15,2013-09-19 19:00:00,
2013-09-19 12:09:00,77.1,38.6,29.84,North,355,7.0,7.0,25,0.00,,,0.00,Wunderground v.1.15,2013-09-19 19:09:00,
2013-09-19 12:15:00,77.4,38.8,29.84,NNW,327,7.0,7.0,25,0.00,,,0.00,Wunderground v.1.15,2013-09-19 19:15:00,
2013-09-19 12:20:00,78.2,38.4,29.84,NW,317,6.0,8.0,24,0.00,,,0.00,Wunderground v.1.15,2013-09-19 19:20:00,
2013-09-19 12:25:00,78.1,38.4,29.84,NNW,340,6.0,8.0,24,0.00,,,0.00,Wunderground v.1.15,2013-09-19 19:25:00,
2013-09-19 12:30:00,78.7,37.8,29.84,NNE,18,5.0,6.0,23,0.00,,,0.00,Wunderground v.1.15,2013-09-19 19:30:00,
2013-09-19 12:35:00,79.1,37.0,29.83,North,5,6.0,7.0,22,0.00,,,0.00,Wunderground v.1.15,2013-09-19 19:35:00,
2013-09-19 12:45:00,79.5,34.9,29.83,NNE,22,6.0,12.0,20,0.00,,,0.00,Wunderground v.1.15,2013-09-19 19:45:00,
2013-09-19 12:54:00,79.8,33.9,29.83,West,278,5.0,12.0,19,0.00,,,0.00,Wunderground v.1.15,2013-09-19 19:54:00,
2013-09-19 13:00:00,80.3,35.6,29.83,North,5,6.0,12.0,20,0.00,,,0.00,Wunderground v.1.15,2013-09-19 20:00:00,
2013-09-19 13:05:00,80.7,34.6,29.83,NNW,332,7.0,12.0,19,0.00,,,0.00,Wunderground v.1.15,2013-09-19 20:05:00,
2013-09-19 13:14:00,80.9,34.8,29.83,NNW,335,6.0,12.0,19,0.00,,,0.00,Wunderground v.1.15,2013-09-19 20:14:00,
2013-09-19 13:24:00,80.7,34.6,29.83,North,9,7.0,12.0,19,0.00,,,0.00,Wunderground v.1.15,2013-09-19 20:24:00,
2013-09-19 13:29:00,81.0,33.5,29.82,NNW,341,6.0,6.0,18,0.00,,,0.00,Wunderground v.1.15,2013-09-19 20:29:00,
2013-09-19 13:34:00,81.4,35.2,29.82,NNW,345,5.0,12.0,19,0.00,,,0.00,Wunderground v.1.15,2013-09-19 20:34:00,
2013-09-19 13:40:00,81.9,35.6,29.82,NNW,342,6.0,12.0,19,0.00,,,0.00,Wunderground v.1.15,2013-09-19 20:40:00,
2013-09-19 13:45:00,81.9,35.6,29.82,NW,319,6.0,12.0,19,0.00,,,0.00,Wunderground v.1.15,2013-09-19 20:45:00,
2013-09-19 13:50:00,81.5,36.5,29.82,WNW,298,6.0,12.0,20,0.00,,,0.00,Wunderground v.1.15,2013-09-19 20:50:00,
2013-09-19 13:59:00,81.4,35.2,29.81,NNW,329,8.0,8.0,19,0.00,,,0.00,Wunderground v.1.15,2013-09-19 20:59:00,
2013-09-19 14:05:00,81.5,35.2,29.81,NNE,32,7.0,12.0,19,0.00,,,0.00,Wunderground v.1.15,2013-09-19 21:05:00,
2013-09-19 14:10:00,81.7,36.7,29.81,NW,312,6.0,12.0,20,0.00,,,0.00,Wunderground v.1.15,2013-09-19 21:10:00,
2013-09-19 14:15:00,82.7,36.2,29.81,NW,319,7.0,12.0,19,0.00,,,0.00,Wunderground v.1.15,2013-09-19 21:15:00,
2013-09-19 14:20:00,82.0,35.7,29.80,North,350,7.0,12.0,19,0.00,,,0.00,Wunderground v.1.15,2013-09-19 21:20:00,
2013-09-19 14:25:00,81.5,36.5,29.80,North,355,7.0,12.0,20,0.00,,,0.00,Wunderground v.1.15,2013-09-19 21:25:00,
2013-09-19 14:34:00,82.4,37.3,29.80,NW,304,6.0,12.0,20,0.00,,,0.00,Wunderground v.1.15,2013-09-19 21:34:00,
2013-09-19 14:39:00,82.4,37.3,29.80,NNW,346,6.0,12.0,20,0.00,,,0.00,Wunderground v.1.15,2013-09-19 21:39:00,
2013-09-19 14:44:00,82.1,37.0,29.80,NNE,16,6.0,12.0,20,0.00,,,0.00,Wunderground v.1.15,2013-09-19 21:44:00,
2013-09-19 14:50:00,82.3,37.2,29.79,NNW,339,6.0,12.0,20,0.00,,,0.00,Wunderground v.1.15,2013-09-19 21:50:00,
2013-09-19 14:55:00,82.1,35.7,29.79,NNW,334,7.0,12.0,19,0.00,,,0.00,Wunderground v.1.15,2013-09-19 21:55:00,
2013-09-19 15:00:00,82.2,37.1,29.79,ENE,78,6.0,6.0,20,0.00,,,0.00,Wunderground v.1.15,2013-09-19 22:00:00,
2013-09-19 15:05:00,82.7,36.2,29.79,NW,321,6.0,8.0,19,0.00,,,0.00,Wunderground v.1.15,2013-09-19 22:05:00,
2013-09-19 15:14:00,83.2,37.9,29.79,WNW,296,4.0,12.0,20,0.00,,,0.00,Wunderground v.1.15,2013-09-19 22:14:00,
2013-09-19 15:19:00,83.9,37.2,29.79,NW,311,4.0,12.0,19,0.00,,,0.00,Wunderground v.1.15,2013-09-19 22:19:00,
2013-09-19 15:24:00,83.8,37.1,29.78,WNW,300,6.0,12.0,19,0.00,,,0.00,Wunderground v.1.15,2013-09-19 22:24:00,
2013-09-19 15:30:00,83.6,37.0,29.78,NNW,346,7.0,12.0,19,0.00,,,0.00,Wunderground v.1.15,2013-09-19 22:30:00,
2013-09-19 15:40:00,82.8,34.9,29.78,NNW,338,7.0,7.0,18,0.00,,,0.00,Wunderground v.1.15,2013-09-19 22:40:00,
2013-09-19 15:45:00,82.8,34.9,29.78,NNW,340,5.0,12.0,18,0.00,,,0.00,Wunderground v.1.15,2013-09-19 22:45:00,
2013-09-19 15:50:00,83.5,36.9,29.78,NNE,22,5.0,12.0,19,0.00,,,0.00,Wunderground v.1.15,2013-09-19 22:50:00,
2013-09-19 15:55:00,83.1,36.6,29.78,WNW,303,6.0,12.0,19,0.00,,,0.00,Wunderground v.1.15,2013-09-19 22:55:00,
2013-09-19 16:04:00,83.3,36.7,29.77,NW,317,7.0,12.0,19,0.00,,,0.00,Wunderground v.1.15,2013-09-19 23:04:00,
2013-09-19 16:09:00,83.2,35.3,29.77,NW,315,7.0,12.0,18,0.00,,,0.00,Wunderground v.1.15,2013-09-19 23:09:00,
2013-09-19 16:14:00,83.3,39.3,29.77,NW,311,8.0,12.0,21,0.00,,,0.00,Wunderground v.1.15,2013-09-19 23:14:00,
2013-09-19 16:20:00,82.9,36.4,29.77,NW,311,8.0,12.0,19,0.00,,,0.00,Wunderground v.1.15,2013-09-19 23:20:00,
2013-09-19 16:25:00,82.8,38.9,29.77,NW,310,8.0,12.0,21,0.00,,,0.00,Wunderground v.1.15,2013-09-19 23:25:00,
2013-09-19 16:34:00,82.5,39.8,29.77,NW,304,7.0,9.0,22,0.00,,,0.00,Wunderground v.1.15,2013-09-19 23:34:00,
2013-09-19 16:39:00,82.6,41.0,29.76,NW,321,8.0,8.0,23,0.00,,,0.00,Wunderground v.1.15,2013-09-19 23:39:00,
2013-09-19 16:44:00,82.4,40.9,29.76,WNW,297,7.0,12.0,23,0.00,,,0.00,Wunderground v.1.15,2013-09-19 23:44:00,
2013-09-19 16:49:00,81.8,42.5,29.76,NW,316,7.0,7.0,25,0.00,,,0.00,Wunderground v.1.15,2013-09-19 23:49:00,
2013-09-19 16:55:00,80.9,43.8,29.76,WNW,292,8.0,11.0,27,0.00,,,0.00,Wunderground v.1.15,2013-09-19 23:55:00,
2013-09-19 17:00:00,80.5,43.4,29.76,WNW,301,8.0,12.0,27,0.00,,,0.00,Wunderground v.1.15,2013-09-20 00:00:00,
2013-09-19 17:05:00,79.6,43.6,29.76,WNW,294,8.0,12.0,28,0.00,,,0.00,Wunderground v.1.15,2013-09-20 00:05:00,
2013-09-19 17:14:00,79.2,45.1,29.76,WNW,298,7.0,9.0,30,0.00,,,0.00,Wunderground v.1.15,2013-09-20 00:14:00,
2013-09-19 17:24:00,78.7,42.8,29.76,NW,320,6.0,12.0,28,0.00,,,0.00,Wunderground v.1.15,2013-09-20 00:24:00,
2013-09-19 17:35:00,79.1,43.2,29.75,WNW,286,5.0,12.0,28,0.00,,,0.00,Wunderground v.1.15,2013-09-20 00:35:00,
2013-09-19 17:44:00,78.9,42.1,29.76,WNW,297,4.0,12.0,27,0.00,,,0.00,Wunderground v.1.15,2013-09-20 00:44:00,
2013-09-19 17:49:00,78.2,42.4,29.76,WNW,291,5.0,12.0,28,0.00,,,0.00,Wunderground v.1.15,2013-09-20 00:49:00,
2013-09-19 18:00:00,76.5,41.9,29.76,WNW,299,6.0,7.0,29,0.00,,,0.00,Wunderground v.1.15,2013-09-20 01:00:00,
2013-09-19 18:10:00,75.9,42.2,29.75,WNW,301,5.0,5.0,30,0.00,,,0.00,Wunderground v.1.15,2013-09-20 01:10:00,
2013-09-19 18:15:00,75.7,43.7,29.75,NW,305,4.0,5.0,32,0.00,,,0.00,Wunderground v.1.15,2013-09-20 01:15:00,
2013-09-19 18:24:00,75.5,44.4,29.75,NW,304,4.0,4.0,33,0.00,,,0.00,Wunderground v.1.15,2013-09-20 01:24:00,
2013-09-19 18:34:00,75.4,44.3,29.75,NNW,331,4.0,10.0,33,0.00,,,0.00,Wunderground v.1.15,2013-09-20 01:34:00,
2013-09-19 18:39:00,75.5,44.4,29.75,NNW,341,4.0,4.0,33,0.00,,,0.00,Wunderground v.1.15,2013-09-20 01:39:00,
2013-09-19 18:44:00,75.6,44.5,29.75,NNW,330,3.0,10.0,33,0.00,,,0.00,Wunderground v.1.15,2013-09-20 01:44:00,
2013-09-19 18:50:00,75.6,43.7,29.75,NNW,333,3.0,10.0,32,0.00,,,0.00,Wunderground v.1.15,2013-09-20 01:50:00,
2013-09-19 18:55:00,75.3,43.4,29.75,NNW,338,3.0,10.0,32,0.00,,,0.00,Wunderground v.1.15,2013-09-20 01:55:00,
2013-09-19 19:00:00,75.0,43.1,29.75,NNW,340,4.0,4.0,32,0.00,,,0.00,Wunderground v.1.15,2013-09-20 02:00:00,
2013-09-19 19:10:00,74.2,42.4,29.75,NNW,348,3.0,3.0,32,0.00,,,0.00,Wunderground v.1.15,2013-09-20 02:10:00,
2013-09-19 19:15:00,73.9,42.2,29.75,NNW,329,3.0,3.0,32,0.00,,,0.00,Wunderground v.1.15,2013-09-20 02:15:00,
2013-09-19 19:24:00,72.5,41.7,29.75,NNW,329,1.0,2.0,33,0.00,,,0.00,Wunderground v.1.15,2013-09-20 02:24:00,
2013-09-19 19:29:00,71.8,41.9,29.75,NNW,329,0.0,1.0,34,0.00,,,0.00,Wunderground v.1.15,2013-09-20 02:29:00,
2013-09-19 19:34:00,71.3,41.5,29.75,NW,304,1.0,6.0,34,0.00,,,0.00,Wunderground v.1.15,2013-09-20 02:34:00,
2013-09-19 19:45:00,69.6,40.0,29.75,NW,307,2.0,6.0,34,0.00,,,0.00,Wunderground v.1.15,2013-09-20 02:45:00,
2013-09-19 19:50:00,68.9,40.1,29.75,NW,315,3.0,6.0,35,0.00,,,0.00,Wunderground v.1.15,2013-09-20 02:50:00,
2013-09-19 19:55:00,68.4,39.7,29.75,WNW,303,2.0,6.0,35,0.00,,,0.00,Wunderground v.1.15,2013-09-20 02:55:00,
2013-09-19 20:00:00,68.0,38.6,29.75,NNW,331,2.0,2.0,34,0.00,,,0.00,Wunderground v.1.15,2013-09-20 03:00:00,
2013-09-19 20:09:00,67.8,37.6,29.76,NW,314,2.0,2.0,33,0.00,,,0.00,Wunderground v.1.15,2013-09-20 03:09:00,
2013-09-19 20:19:00,67.5,35.0,29.76,NW,313,3.0,3.0,30,0.00,,,0.00,Wunderground v.1.15,2013-09-20 03:19:00,
2013-09-19 20:24:00,67.4,34.9,29.76,NW,308,3.0,4.0,30,0.00,,,0.00,Wunderground v.1.15,2013-09-20 03:24:00,
2013-09-19 20:30:00,67.1,33.8,29.76,NW,323,3.0,3.0,29,0.00,,,0.00,Wunderground v.1.15,2013-09-20 03:30:00,
2013-09-19 20:35:00,66.9,32.7,29.77,WNW,303,2.0,5.0,28,0.00,,,0.00,Wunderground v.1.15,2013-09-20 03:35:00,
2013-09-19 20:40:00,66.9,32.7,29.77,WNW,294,3.0,3.0,28,0.00,,,0.00,Wunderground v.1.15,2013-09-20 03:40:00,
2013-09-19 20:50:00,67.1,32.0,29.77,NW,315,2.0,2.0,27,0.00,,,0.00,Wunderground v.1.15,2013-09-20 03:50:00,
2013-09-19 20:55:00,67.0,31.9,29.77,NW,314,1.0,5.0,27,0.00,,,0.00,Wunderground v.1.15,2013-09-20 03:55:00,
2013-09-19 21:05:00,66.9,30.9,29.78,NW,304,2.0,3.0,26,0.00,,,0.00,Wunderground v.1.15,2013-09-20 04:05:00,
2013-09-19 21:10:00,67.0,31.0,29.78,WNW,301,2.0,2.0,26,0.00,,,0.00,Wunderground v.1.15,2013-09-20 04:10:00,
2013-09-19 21:15:00,66.8,29.8,29.78,WNW,301,1.0,2.0,25,0.00,,,0.00,Wunderground v.1.15,2013-09-20 04:15:00,
2013-09-19 21:25:00,66.5,29.6,29.78,WNW,301,0.0,0.0,25,0.00,,,0.00,Wunderground v.1.15,2013-09-20 04:25:00,
2013-09-19 21:34:00,66.1,28.2,29.77,WNW,301,0.0,7.0,24,0.00,,,0.00,Wunderground v.1.15,2013-09-20 04:34:00,
2013-09-19 21:40:00,66.0,28.1,29.77,WNW,301,0.0,7.0,24,0.00,,,0.00,Wunderground v.1.15,2013-09-20 04:40:00,
2013-09-19 21:45:00,65.8,28.0,29.77,WNW,301,0.0,7.0,24,0.00,,,0.00,Wunderground v.1.15,2013-09-20 04:45:00,
2013-09-19 21:50:00,65.7,27.9,29.77,WNW,301,0.0,7.0,24,0.00,,,0.00,Wunderground v.1.15,2013-09-20 04:50:00,
2013-09-19 21:55:00,65.6,27.8,29.77,WNW,301,0.0,7.0,24,0.00,,,0.00,Wunderground v.1.15,2013-09-20 04:55:00,
2013-09-19 22:00:00,65.5,28.7,29.77,WNW,301,0.0,0.0,25,0.00,,,0.00,Wunderground v.1.15,2013-09-20 05:00:00,
2013-09-19 22:09:00,65.9,29.1,29.77,WNW,301,0.0,0.0,25,0.00,,,0.00,Wunderground v.1.15,2013-09-20 05:09:00,
2013-09-19 22:14:00,65.9,29.1,29.77,WNW,301,0.0,0.0,25,0.00,,,0.00,Wunderground v.1.15,2013-09-20 05:14:00,
2013-09-19 22:19:00,66.1,29.2,29.77,WNW,301,0.0,1.0,25,0.00,,,0.00,Wunderground v.1.15,2013-09-20 05:19:00,
2013-09-19 22:24:00,66.4,29.5,29.77,WNW,301,1.0,1.0,25,0.00,,,0.00,Wunderground v.1.15,2013-09-20 05:24:00,
2013-09-19 22:29:00,66.3,29.4,29.77,WNW,301,1.0,1.0,25,0.00,,,0.00,Wunderground v.1.15,2013-09-20 05:29:00,
2013-09-19 22:34:00,66.2,30.3,29.77,WNW,301,0.0,2.0,26,0.00,,,0.00,Wunderground v.1.15,2013-09-20 05:34:00,
2013-09-19 22:40:00,66.1,30.2,29.77,WNW,301,0.0,1.0,26,0.00,,,0.00,Wunderground v.1.15,2013-09-20 05:40:00,
2013-09-19 22:45:00,66.1,30.2,29.77,WNW,301,0.0,1.0,26,0.00,,,0.00,Wunderground v.1.15,2013-09-20 05:45:00,
2013-09-19 22:50:00,66.0,30.1,29.77,WNW,300,0.0,1.0,26,0.00,,,0.00,Wunderground v.1.15,2013-09-20 05:50:00,
2013-09-19 22:55:00,66.1,30.2,29.77,SE,130,1.0,3.0,26,0.00,,,0.00,Wunderground v.1.15,2013-09-20 05:55:00,
2013-09-19 23:00:00,66.3,30.4,29.77,SE,143,2.0,2.0,26,0.00,,,0.00,Wunderground v.1.15,2013-09-20 06:00:00,
2013-09-19 23:09:00,66.0,30.1,29.77,SSE,152,2.0,4.0,26,0.00,,,0.00,Wunderground v.1.15,2013-09-20 06:09:00,
2013-09-19 23:14:00,65.7,29.8,29.77,SE,140,2.0,4.0,26,0.00,,,0.00,Wunderground v.1.15,2013-09-20 06:14:00,
2013-09-19 23:19:00,65.4,31.4,29.77,SE,138,2.0,3.0,28,0.00,,,0.00,Wunderground v.1.15,2013-09-20 06:19:00,
2013-09-19 23:24:00,65.2,33.8,29.77,SE,135,3.0,3.0,31,0.00,,,0.00,Wunderground v.1.15,2013-09-20 06:24:00,
2013-09-19 23:30:00,65.1,33.7,29.77,ESE,102,2.0,2.0,31,0.00,,,0.00,Wunderground v.1.15,2013-09-20 06:30:00,
2013-09-19 23:35:00,65.1,32.9,29.77,ESE,111,2.0,3.0,30,0.00,,,0.00,Wunderground v.1.15,2013-09-20 06:35:00,
2013-09-19 23:40:00,65.0,32.8,29.77,East,91,2.0,3.0,30,0.00,,,0.00,Wunderground v.1.15,2013-09-20 06:40:00,
2013-09-19 23:45:00,64.7,32.5,29.77,ESE,123,3.0,5.0,30,0.00,,,0.00,Wunderground v.1.15,2013-09-20 06:45:00,
2013-09-19 23:50:00,64.9,31.9,29.77,ESE,121,4.0,5.0,29,0.00,,,0.00,Wunderground v.1.15,2013-09-20 06:50:00,
2013-09-19 23:55:00,65.3,30.4,29.77,SE,128,5.0,5.0,27,0.00,,,0.00,Wunderground v.1.15,2013-09-20 06:55:00,